Time;durP1;ratioP1;P1;durP2;ratioP2;P2;SDS_P1;SDS_P2;PMS_P1;PMS_P2;Temp;Humidity;BMP_temperature;BMP_pressure;BME280_temperature;BME280_humidity;BME280_pressure;Samples;Min_cycle;Max_cycle;Signal;HPM_P1;HPM_P2
2021/08/23 00:01:50;;;;;;;20.38;11.70;;;;;;;16.40;100.00;102152.59;5057274;28;20110;-69
2021/08/23 00:04:18;;;;;;;20.17;11.73;;;;;;;16.47;100.00;102158.66;5058136;28;20084;-69
2021/08/23 00:06:46;;;;;;;21.85;12.63;;;;;;;16.44;100.00;102155.09;5058539;28;20061;-69
2021/08/23 00:09:13;;;;;;;20.25;11.90;;;;;;;16.43;100.00;102160.56;5054781;28;20331;-69
2021/08/23 00:11:41;;;;;;;19.95;12.13;;;;;;;16.37;100.00;102156.28;5057859;28;20068;-69
2021/08/23 00:14:09;;;;;;;23.10;11.93;;;;;;;16.45;100.00;102166.78;5055168;28;20056;-69
2021/08/23 00:16:37;;;;;;;22.10;13.05;;;;;;;16.37;100.00;102160.78;5054483;28;20088;-69
2021/08/23 00:19:07;;;;;;;21.60;11.95;;;;;;;16.34;100.00;102166.28;5059880;28;20064;-69
2021/08/23 00:21:41;;;;;;;22.17;13.18;;;;;;;16.39;100.00;102161.59;5055401;28;20535;-68
2021/08/23 00:24:21;;;;;;;22.33;12.93;;;;;;;16.37;100.00;102164.34;5057648;28;20118;-68
2021/08/23 00:26:50;;;;;;;24.13;13.05;;;;;;;16.42;100.00;102164.19;5056656;28;20064;-70
2021/08/23 00:29:17;;;;;;;26.60;14.10;;;;;;;16.42;100.00;102167.75;5059553;28;20109;-68
2021/08/23 00:31:45;;;;;;;23.40;12.82;;;;;;;16.38;100.00;102167.94;5057463;28;20064;-68
2021/08/23 00:34:15;;;;;;;23.60;13.40;;;;;;;16.41;100.00;102174.09;5058553;28;20064;-68
2021/08/23 00:36:43;;;;;;;24.77;13.82;;;;;;;16.36;100.00;102172.47;5053942;28;20567;-69
2021/08/23 00:39:12;;;;;;;27.70;14.85;;;;;;;16.32;100.00;102171.72;5056603;28;20110;-69
2021/08/23 00:41:41;;;;;;;29.23;15.45;;;;;;;16.37;100.00;102175.13;5056824;28;20110;-69
2021/08/23 00:44:10;;;;;;;28.00;14.13;;;;;;;16.32;100.00;102174.41;5055462;28;20060;-68
2021/08/23 00:46:41;;;;;;;26.08;14.35;;;;;;;16.32;100.00;102190.56;5055989;28;20066;-68
2021/08/23 00:49:09;;;;;;;25.85;14.82;;;;;;;16.34;100.00;102186.00;5057695;28;20641;-68
2021/08/23 00:51:38;;;;;;;21.88;12.25;;;;;;;16.35;100.00;102187.78;5057732;28;20460;-69
2021/08/23 00:54:06;;;;;;;25.83;14.25;;;;;;;16.32;100.00;102195.09;5055012;28;20458;-69
2021/08/23 00:56:34;;;;;;;26.55;14.73;;;;;;;16.34;100.00;102196.78;5053870;28;20107;-68
2021/08/23 00:59:02;;;;;;;25.50;13.98;;;;;;;16.31;100.00;102196.00;5056719;28;20096;-68
2021/08/23 01:01:36;;;;;;;22.33;12.93;;;;;;;16.29;100.00;102192.50;5055393;28;20072;-69
2021/08/23 01:04:16;;;;;;;21.70;13.50;;;;;;;16.26;100.00;102201.56;5056730;28;20157;-68
2021/08/23 01:06:46;;;;;;;30.27;14.43;;;;;;;16.31;100.00;102207.69;5057816;28;20065;-68
2021/08/23 01:09:16;;;;;;;26.35;13.65;;;;;;;16.29;100.00;102208.66;5055586;28;20354;-68
2021/08/23 01:11:50;;;;;;;25.13;13.57;;;;;;;16.27;100.00;102216.78;5056365;28;20067;-68
2021/08/23 01:14:18;;;;;;;24.15;13.88;;;;;;;16.21;100.00;102222.38;5054754;28;20336;-68
2021/08/23 01:16:46;;;;;;;24.08;13.63;;;;;;;16.21;100.00;102217.00;5058512;28;20065;-66
2021/08/23 01:19:17;;;;;;;23.95;13.98;;;;;;;16.27;100.00;102222.16;5056223;28;20068;-65
2021/08/23 01:21:49;;;;;;;27.52;14.23;;;;;;;16.20;100.00;102229.56;5057522;28;20068;-68
2021/08/23 01:24:18;;;;;;;30.93;13.40;;;;;;;16.25;100.00;102229.41;5056515;28;20068;-68
2021/08/23 01:26:49;;;;;;;26.60;13.55;;;;;;;16.28;100.00;102234.72;5056448;28;20052;-70
2021/08/23 01:29:21;;;;;;;27.63;13.95;;;;;;;16.25;100.00;102229.41;5056176;28;20080;-70
2021/08/23 01:31:55;;;;;;;24.35;13.25;;;;;;;16.25;100.00;102224.91;5053671;28;20443;-68
2021/08/23 01:34:27;;;;;;;24.20;13.82;;;;;;;16.18;100.00;102226.06;5054418;28;20052;-67
2021/08/23 01:36:54;;;;;;;24.13;13.43;;;;;;;16.19;100.00;102232.31;5054566;28;20104;-67
2021/08/23 01:39:22;;;;;;;20.88;12.48;;;;;;;16.22;100.00;102234.91;5056532;28;20044;-67
2021/08/23 01:41:50;;;;;;;23.17;12.57;;;;;;;16.12;100.00;102242.41;5056979;28;20453;-67
2021/08/23 01:44:18;;;;;;;22.67;13.32;;;;;;;16.15;100.00;102239.63;5056261;28;20057;-67
2021/08/23 01:46:46;;;;;;;20.63;12.65;;;;;;;16.12;100.00;102249.59;5058659;28;20384;-67
2021/08/23 01:49:13;;;;;;;24.25;13.57;;;;;;;16.14;100.00;102245.94;5055981;28;20064;-67
2021/08/23 01:51:43;;;;;;;25.65;14.10;;;;;;;16.05;100.00;102243.53;5056177;28;20065;-67
2021/08/23 01:54:10;;;;;;;25.13;14.35;;;;;;;15.95;100.00;102248.34;5057689;28;20433;-67
2021/08/23 01:56:38;;;;;;;26.92;14.63;;;;;;;15.98;100.00;102252.75;5055890;28;20064;-66
2021/08/23 01:59:06;;;;;;;23.42;14.77;;;;;;;15.98;100.00;102250.06;5056903;28;20378;-67
2021/08/23 02:01:35;;;;;;;24.55;13.25;;;;;;;15.98;100.00;102260.81;5052737;28;20345;-66
2021/08/23 02:04:04;;;;;;;24.10;13.07;;;;;;;16.08;100.00;102246.13;5060251;28;20061;-66
2021/08/23 02:06:32;;;;;;;23.83;13.38;;;;;;;16.00;100.00;102258.97;5058921;28;20060;-66
2021/08/23 02:09:02;;;;;;;21.95;13.55;;;;;;;16.08;100.00;102256.91;5062115;28;20076;-66
2021/08/23 02:11:30;;;;;;;24.23;13.68;;;;;;;16.01;100.00;102258.03;5061243;28;20335;-66
2021/08/23 02:13:57;;;;;;;22.98;13.05;;;;;;;16.02;100.00;102266.06;5059383;28;20141;-66
2021/08/23 02:16:25;;;;;;;26.08;14.18;;;;;;;16.06;100.00;102272.25;5062486;28;20100;-66
2021/08/23 02:18:53;;;;;;;27.52;14.90;;;;;;;16.08;100.00;102278.44;5060057;28;20283;-69
2021/08/23 02:21:21;;;;;;;29.73;15.90;;;;;;;16.03;100.00;102278.59;5060760;28;20393;-69
2021/08/23 02:23:50;;;;;;;21.27;12.57;;;;;;;16.04;100.00;102287.56;5061071;28;20057;-69
2021/08/23 02:26:19;;;;;;;26.60;13.00;;;;;;;16.05;100.00;102292.88;5060605;28;20497;-69
2021/08/23 02:28:47;;;;;;;23.48;13.38;;;;;;;16.00;100.00;102285.88;5063756;28;20049;-69
2021/08/23 02:31:15;;;;;;;20.90;12.77;;;;;;;16.04;100.00;102285.75;5054650;28;20083;-69
2021/08/23 02:33:42;;;;;;;20.40;12.60;;;;;;;16.09;100.00;102292.78;5057991;28;20101;-69
2021/08/23 02:36:10;;;;;;;22.92;12.30;;;;;;;16.05;100.00;102295.56;5056121;28;20064;-69
2021/08/23 02:38:38;;;;;;;19.13;11.90;;;;;;;16.05;100.00;102300.06;5055479;28;20150;-69
2021/08/23 02:41:06;;;;;;;19.80;11.68;;;;;;;16.05;100.00;102298.25;5056790;28;20065;-69
2021/08/23 02:43:35;;;;;;;22.10;11.48;;;;;;;16.08;100.00;102296.41;5057175;28;20146;-69
2021/08/23 02:46:03;;;;;;;18.75;11.02;;;;;;;16.05;100.00;102300.94;5060194;28;20071;-69
2021/08/23 02:48:31;;;;;;;20.33;11.00;;;;;;;16.01;100.00;102307.38;5055915;28;20121;-69
2021/08/23 02:50:58;;;;;;;18.40;10.30;;;;;;;16.04;100.00;102301.91;5060082;28;20064;-70
2021/08/23 02:53:26;;;;;;;17.45;9.48;;;;;;;16.06;100.00;102304.53;5057759;28;20060;-69
2021/08/23 02:55:54;;;;;;;18.17;9.32;;;;;;;16.06;100.00;102308.09;5057766;28;20582;-70
2021/08/23 02:58:22;;;;;;;16.58;10.00;;;;;;;16.05;99.97;102316.22;5059496;28;20145;-69
2021/08/23 03:00:52;;;;;;;18.08;9.48;;;;;;;16.05;99.85;102316.22;5055903;28;20091;-69
2021/08/23 03:03:20;;;;;;;16.55;9.45;;;;;;;16.10;99.33;102321.47;5052013;28;20163;-67
2021/08/23 03:05:48;;;;;;;17.10;8.95;;;;;;;16.11;99.78;102323.25;5055640;28;20199;-69
2021/08/23 03:08:15;;;;;;;15.25;8.82;;;;;;;16.11;99.23;102324.13;5058173;28;20088;-69
2021/08/23 03:10:43;;;;;;;15.27;8.68;;;;;;;16.10;99.33;102332.25;5058578;28;20064;-67
2021/08/23 03:13:11;;;;;;;16.38;8.13;;;;;;;16.11;99.33;102336.72;5058872;28;20067;-69
2021/08/23 03:15:39;;;;;;;15.68;8.80;;;;;;;16.06;98.47;102332.34;5057246;28;20092;-67
2021/08/23 03:18:09;;;;;;;16.60;7.65;;;;;;;16.11;98.73;102342.09;5054891;28;20115;-67
2021/08/23 03:20:37;;;;;;;15.68;7.50;;;;;;;16.13;98.27;102337.53;5053928;28;20064;-69
2021/08/23 03:23:05;;;;;;;17.55;7.65;;;;;;;16.11;98.36;102342.09;5058943;28;20059;-69
2021/08/23 03:25:32;;;;;;;14.57;7.38;;;;;;;16.13;98.53;102337.53;5055367;28;20067;-69
2021/08/23 03:28:00;;;;;;;13.40;7.20;;;;;;;16.15;98.29;102341.94;5060971;28;20154;-67
2021/08/23 03:30:28;;;;;;;15.05;7.88;;;;;;;16.11;97.89;102344.78;5058721;28;20055;-69
2021/08/23 03:32:56;;;;;;;13.00;6.40;;;;;;;16.10;98.37;102351.09;5060522;28;20064;-68
2021/08/23 03:35:25;;;;;;;11.70;6.00;;;;;;;16.12;97.68;102355.50;5056812;28;20145;-68
2021/08/23 03:37:53;;;;;;;11.02;5.90;;;;;;;16.16;97.54;102349.09;5056406;28;20056;-68
2021/08/23 03:40:21;;;;;;;16.02;6.60;;;;;;;16.17;97.30;102352.66;5057259;28;20084;-69
2021/08/23 03:42:49;;;;;;;12.20;6.00;;;;;;;16.21;96.99;102360.59;5056555;28;20072;-69
2021/08/23 03:45:17;;;;;;;12.38;5.32;;;;;;;16.17;96.96;102358.03;5060062;28;20098;-69
2021/08/23 03:47:45;;;;;;;10.77;5.28;;;;;;;16.21;97.26;102365.13;5057683;28;20438;-68
2021/08/23 03:50:12;;;;;;;13.63;5.93;;;;;;;16.18;97.20;102363.38;5058214;28;20449;-69
2021/08/23 03:52:41;;;;;;;13.20;5.15;;;;;;;16.15;97.43;102360.78;5059767;28;20064;-68
2021/08/23 03:55:10;;;;;;;11.07;4.80;;;;;;;16.21;97.39;102374.06;5056174;28;20064;-68
2021/08/23 03:57:38;;;;;;;14.10;5.38;;;;;;;16.20;96.75;102369.59;5058928;28;20114;-68
2021/08/23 04:00:09;;;;;;;13.88;5.65;;;;;;;16.18;97.27;102368.78;5057189;28;20588;-68
2021/08/23 04:02:37;;;;;;;11.27;5.15;;;;;;;16.21;97.00;102365.13;5060343;28;20131;-69
2021/08/23 04:05:06;;;;;;;11.57;5.78;;;;;;;16.18;96.96;102374.16;5054788;28;20060;-67
2021/08/23 04:07:34;;;;;;;13.77;5.47;;;;;;;16.17;97.51;102376.91;5056715;28;20281;-69
2021/08/23 04:10:03;;;;;;;11.80;5.10;;;;;;;16.26;96.81;102376.63;5059273;28;20118;-67
2021/08/23 04:12:31;;;;;;;13.07;5.20;;;;;;;16.26;95.75;102379.31;5054673;28;20134;-67
2021/08/23 04:15:00;;;;;;;12.00;4.88;;;;;;;16.30;96.18;102383.66;5056094;28;20451;-67
2021/08/23 04:17:27;;;;;;;13.93;5.18;;;;;;;16.20;96.53;102383.06;5055915;28;20064;-69
2021/08/23 04:19:55;;;;;;;12.98;4.70;;;;;;;16.23;96.52;102385.66;5058862;28;20463;-68
2021/08/23 04:22:23;;;;;;;9.73;4.40;;;;;;;16.21;95.96;102387.53;5055533;28;20049;-68
2021/08/23 04:24:51;;;;;;;12.85;4.72;;;;;;;16.20;95.06;102390.28;5056601;28;20194;-68
2021/08/23 04:27:20;;;;;;;9.32;4.45;;;;;;;16.22;95.80;102391.97;5055442;28;20064;-68
2021/08/23 04:29:47;;;;;;;9.82;4.32;;;;;;;16.26;95.40;102392.78;5053734;28;20125;-69
2021/08/23 04:32:15;;;;;;;12.30;4.97;;;;;;;16.30;95.02;102399.81;5059788;28;20072;-68
2021/08/23 04:34:43;;;;;;;10.38;4.70;;;;;;;16.29;95.29;102407.94;5057088;28;20072;-68
2021/08/23 04:37:11;;;;;;;10.07;4.22;;;;;;;16.24;95.05;102410.78;5054805;28;20068;-68
2021/08/23 04:39:39;;;;;;;11.15;4.45;;;;;;;16.19;95.40;102415.41;5057366;28;20090;-68
2021/08/23 04:42:07;;;;;;;12.40;4.57;;;;;;;16.20;94.63;102425.28;5054827;28;20076;-68
2021/08/23 04:44:36;;;;;;;10.23;4.38;;;;;;;16.20;94.56;102431.53;5057197;28;20340;-68
2021/08/23 04:47:04;;;;;;;9.63;4.93;;;;;;;16.31;93.74;102428.53;5056860;28;20433;-68
2021/08/23 04:49:32;;;;;;;10.00;4.10;;;;;;;16.21;94.38;102436.00;5058511;28;20052;-68
2021/08/23 04:52:00;;;;;;;12.68;4.88;;;;;;;16.16;94.18;102434.41;5055169;28;20063;-67
2021/08/23 04:54:27;;;;;;;12.57;4.53;;;;;;;16.17;94.70;102441.53;5059006;28;20102;-68
2021/08/23 04:56:55;;;;;;;9.68;4.60;;;;;;;16.19;94.74;102440.56;5057077;28;20068;-67
2021/08/23 04:59:23;;;;;;;9.65;4.10;;;;;;;16.20;94.26;102442.31;5057285;28;20071;-68
2021/08/23 05:01:52;;;;;;;10.68;4.43;;;;;;;16.26;93.87;102449.34;5057394;28;20455;-67
2021/08/23 05:04:20;;;;;;;13.40;4.28;;;;;;;16.19;94.23;102450.44;5055996;28;20072;-67
2021/08/23 05:06:48;;;;;;;10.85;4.53;;;;;;;16.19;94.21;102461.19;5057281;28;20060;-68
2021/08/23 05:09:15;;;;;;;11.25;3.78;;;;;;;16.22;93.95;102458.44;5055754;28;20056;-68
2021/08/23 05:11:44;;;;;;;9.52;4.55;;;;;;;16.24;93.72;102457.47;5056774;28;20059;-67
2021/08/23 05:14:11;;;;;;;11.68;4.10;;;;;;;16.21;94.01;102460.25;5059465;28;20126;-67
2021/08/23 05:16:39;;;;;;;13.82;5.00;;;;;;;16.24;93.24;102464.63;5060059;28;20436;-68
2021/08/23 05:19:08;;;;;;;8.50;4.15;;;;;;;16.31;92.89;102466.25;5055539;28;20161;-68
2021/08/23 05:21:36;;;;;;;15.57;4.18;;;;;;;16.24;93.24;102470.94;5055767;28;20048;-68
2021/08/23 05:24:04;;;;;;;11.18;4.63;;;;;;;16.24;93.54;102473.63;5054567;28;20096;-68
2021/08/23 05:26:32;;;;;;;11.02;4.45;;;;;;;16.20;93.73;102477.31;5055598;28;20067;-68
2021/08/23 05:29:00;;;;;;;10.02;4.30;;;;;;;16.23;94.21;102477.22;5057271;28;20443;-68
2021/08/23 05:31:28;;;;;;;12.05;4.38;;;;;;;16.28;93.81;102481.59;5057279;28;20363;-68
2021/08/23 05:33:56;;;;;;;10.63;4.25;;;;;;;16.24;94.02;102489.78;5054894;28;20095;-68
2021/08/23 05:36:25;;;;;;;12.85;4.38;;;;;;;16.29;94.40;102488.75;5057222;28;20101;-68
2021/08/23 05:38:53;;;;;;;10.70;4.10;;;;;;;16.27;93.96;102491.50;5057725;28;20487;-68
2021/08/23 05:41:20;;;;;;;8.93;3.85;;;;;;;16.34;93.44;102486.81;5059321;28;20044;-68
2021/08/23 05:43:48;;;;;;;8.55;3.92;;;;;;;16.36;93.17;102491.22;5059638;28;20064;-68
2021/08/23 05:46:20;;;;;;;8.75;4.35;;;;;;;16.31;93.14;102498.56;5057680;28;20068;-68
2021/08/23 05:48:48;;;;;;;10.18;4.22;;;;;;;16.30;93.34;102502.19;5059030;28;20068;-68
2021/08/23 05:51:16;;;;;;;12.80;4.53;;;;;;;16.29;93.08;102504.91;5060187;28;20068;-68
2021/08/23 05:53:46;;;;;;;8.45;4.05;;;;;;;16.32;93.61;102504.81;5060481;28;20560;-66
2021/08/23 05:56:13;;;;;;;12.57;4.10;;;;;;;16.31;93.50;102513.81;5061048;28;20741;-66
2021/08/23 05:58:46;;;;;;;11.33;4.10;;;;;;;16.37;92.92;102514.53;5061671;28;20233;-66
2021/08/23 06:01:14;;;;;;;10.02;4.20;;;;;;;16.38;93.39;102523.50;5056108;28;20142;-67
2021/08/23 06:03:42;;;;;;;10.98;3.92;;;;;;;16.38;93.71;102515.44;5058328;28;20065;-66
2021/08/23 06:06:10;;;;;;;11.13;4.45;;;;;;;16.40;93.36;102519.81;5058251;28;20065;-66
2021/08/23 06:08:37;;;;;;;10.85;4.47;;;;;;;16.40;93.81;102513.56;5060514;28;20060;-66
2021/08/23 06:11:06;;;;;;;13.10;4.32;;;;;;;16.45;93.46;102517.00;5060201;28;20105;-66
2021/08/23 06:13:34;;;;;;;11.25;4.32;;;;;;;16.51;93.06;102524.88;5054718;28;20198;-66
2021/08/23 06:16:02;;;;;;;9.95;4.22;;;;;;;16.48;93.73;102516.91;5058000;28;20064;-66
2021/08/23 06:18:30;;;;;;;10.52;4.00;;;;;;;16.54;93.38;102516.72;5056405;28;20159;-65
2021/08/23 06:21:00;;;;;;;12.70;4.10;;;;;;;16.59;93.27;102520.16;5059334;28;20061;-66
2021/08/23 06:23:28;;;;;;;9.82;4.18;;;;;;;16.62;93.40;102527.28;5064142;28;20060;-66
2021/08/23 06:25:55;;;;;;;9.07;4.00;;;;;;;16.56;93.63;102528.31;5056348;28;20071;-68
2021/08/23 06:28:25;;;;;;;11.95;4.68;;;;;;;16.61;93.95;102528.19;5058797;28;20060;-66
2021/08/23 06:30:52;;;;;;;10.23;4.75;;;;;;;16.68;93.49;102529.75;5059905;28;20060;-66
2021/08/23 06:33:21;;;;;;;10.45;4.63;;;;;;;16.71;93.64;102526.09;5057047;28;20076;-66
2021/08/23 06:35:49;;;;;;;9.60;4.38;;;;;;;16.75;93.50;102522.38;5060244;28;20079;-66
2021/08/23 06:38:16;;;;;;;9.18;4.30;;;;;;;16.74;93.70;102532.28;5058495;28;20045;-66
2021/08/23 06:40:44;;;;;;;13.82;4.90;;;;;;;16.75;94.29;102530.44;5060557;28;20125;-67
2021/08/23 06:43:12;;;;;;;12.60;4.38;;;;;;;16.80;93.92;102528.50;5052758;28;20144;-66
2021/08/23 06:45:41;;;;;;;10.85;4.38;;;;;;;16.83;94.16;102533.78;5058466;28;20307;-67
2021/08/23 06:48:09;;;;;;;10.25;4.70;;;;;;;16.81;94.58;102531.13;5060590;28;20055;-69
2021/08/23 06:50:37;;;;;;;12.48;5.00;;;;;;;16.94;94.04;102530.78;5057662;28;20056;-68
2021/08/23 06:53:05;;;;;;;10.70;4.18;;;;;;;16.96;94.43;102532.50;5059966;28;20071;-67
2021/08/23 06:55:33;;;;;;;8.63;4.32;;;;;;;16.97;94.74;102536.06;5056551;28;20076;-67
2021/08/23 06:58:01;;;;;;;11.43;4.25;;;;;;;17.02;94.44;102536.81;5060308;28;20402;-67
2021/08/23 07:00:29;;;;;;;10.50;4.45;;;;;;;17.11;94.75;102536.53;5058459;28;20441;-67
2021/08/23 07:03:00;;;;;;;9.88;4.32;;;;;;;17.22;94.05;102541.56;5058478;28;20491;-67
2021/08/23 07:05:28;;;;;;;9.02;4.40;;;;;;;17.27;93.09;102555.78;5059359;28;20092;-67
2021/08/23 07:07:55;;;;;;;11.82;4.50;;;;;;;17.39;92.91;102549.09;5057306;28;20071;-67
2021/08/23 07:10:23;;;;;;;9.32;4.18;;;;;;;17.41;93.33;102557.13;5063358;28;20110;-67
2021/08/23 07:12:51;;;;;;;13.45;5.00;;;;;;;17.46;92.93;102561.44;5055671;28;20072;-66
2021/08/23 07:15:19;;;;;;;9.68;4.45;;;;;;;17.62;92.98;102561.81;5059144;28;20448;-67
2021/08/23 07:17:47;;;;;;;9.35;4.45;;;;;;;17.70;91.74;102567.81;5058294;28;20051;-68
2021/08/23 07:20:22;;;;;;;12.93;5.18;;;;;;;17.70;91.92;102558.84;5061751;28;20147;-68
2021/08/23 07:22:50;;;;;;;9.43;4.50;;;;;;;17.90;91.87;102564.44;5060376;28;20096;-68
2021/08/23 07:25:17;;;;;;;12.48;5.25;;;;;;;17.89;91.09;102565.41;5055590;28;20076;-68
2021/08/23 07:27:45;;;;;;;11.88;5.28;;;;;;;18.04;91.41;102569.34;5058581;28;20065;-68
2021/08/23 07:30:14;;;;;;;13.13;5.57;;;;;;;18.19;90.62;102583.25;5055232;28;20064;-68
2021/08/23 07:32:43;;;;;;;12.82;4.93;;;;;;;18.24;89.94;102578.56;5058807;28;20703;-68
2021/08/23 07:35:11;;;;;;;13.98;5.20;;;;;;;18.41;89.69;102576.09;5059735;28;20071;-69
2021/08/23 07:37:45;;;;;;;8.68;5.05;;;;;;;18.51;88.12;102579.34;5058649;28;20072;-68
2021/08/23 07:40:14;;;;;;;13.10;4.63;;;;;;;18.70;88.20;102573.22;5059819;28;20059;-68
2021/08/23 07:42:42;;;;;;;11.02;4.45;;;;;;;18.66;88.39;102572.44;5058267;28;20319;-70
2021/08/23 07:45:13;;;;;;;9.73;4.30;;;;;;;18.81;86.74;102570.97;5060870;28;20602;-68
2021/08/23 07:47:42;;;;;;;11.95;4.22;;;;;;;18.97;86.56;102569.47;5058146;28;20064;-66
2021/08/23 07:50:12;;;;;;;9.15;4.20;;;;;;;19.17;85.23;102573.16;5058700;28;20061;-66
2021/08/23 07:52:40;;;;;;;8.82;4.00;;;;;;;19.06;85.33;102575.44;5058101;28;20153;-69
2021/08/23 07:55:11;;;;;;;10.02;4.13;;;;;;;19.11;83.19;102574.31;5060685;28;20153;-68
2021/08/23 07:57:42;;;;;;;13.95;4.53;;;;;;;18.90;83.71;102573.38;5058827;28;20065;-68
2021/08/23 08:00:12;;;;;;;9.18;3.85;;;;;;;18.87;83.00;102567.19;5060349;28;20053;-69
2021/08/23 08:02:40;;;;;;;10.82;4.10;;;;;;;18.85;82.59;102573.53;5059653;28;20060;-69
2021/08/23 08:05:09;;;;;;;11.10;3.65;;;;;;;18.63;82.80;102576.16;5055054;28;20075;-69
2021/08/23 08:07:38;;;;;;;8.25;3.70;;;;;;;18.83;80.12;102575.44;5056513;28;20121;-68
2021/08/23 08:10:07;;;;;;;7.47;3.35;;;;;;;18.87;81.34;102584.28;5057133;28;20049;-68
2021/08/23 08:12:37;;;;;;;7.20;3.42;;;;;;;18.73;79.94;102579.41;5052599;28;20064;-69
2021/08/23 08:15:07;;;;;;;9.20;3.45;;;;;;;18.75;80.25;102582.91;5056259;28;20051;-68
2021/08/23 08:17:35;;;;;;;7.28;4.07;;;;;;;18.69;78.71;102582.28;5059940;28;20064;-68
2021/08/23 08:20:03;;;;;;;12.55;3.97;;;;;;;18.63;78.81;102581.56;5053906;28;20163;-68
2021/08/23 08:22:31;;;;;;;10.82;3.33;;;;;;;18.90;79.24;102588.69;5056354;28;20071;-68
2021/08/23 08:24:59;;;;;;;8.88;4.03;;;;;;;18.99;78.84;102582.94;5057860;28;20106;-68
2021/08/23 08:27:27;;;;;;;10.93;3.63;;;;;;;19.11;78.89;102592.38;5053891;28;20633;-67
2021/08/23 08:29:56;;;;;;;7.93;3.47;;;;;;;19.16;77.95;102596.66;5057714;28;20494;-67
2021/08/23 08:32:24;;;;;;;6.40;3.17;;;;;;;19.19;77.72;102588.41;5055173;28;20088;-67
2021/08/23 08:34:51;;;;;;;6.47;3.65;;;;;;;19.19;76.94;102601.94;5054447;28;20061;-66
2021/08/23 08:37:20;;;;;;;9.73;3.53;;;;;;;19.20;76.88;102606.38;5054318;28;20071;-66
2021/08/23 08:39:47;;;;;;;9.32;3.72;;;;;;;19.27;76.58;102596.19;5053451;28;20092;-66
2021/08/23 08:42:16;;;;;;;6.93;3.40;;;;;;;19.54;76.05;102605.00;5057663;28;20060;-68
2021/08/23 08:44:44;;;;;;;10.43;3.50;;;;;;;19.44;75.18;102608.16;5054368;28;20110;-68
2021/08/23 08:47:16;;;;;;;9.60;3.70;;;;;;;19.57;74.35;102604.88;5051885;28;20063;-66
2021/08/23 08:49:45;;;;;;;6.30;3.53;;;;;;;19.69;74.05;102608.03;5052831;28;20060;-66
2021/08/23 08:52:14;;;;;;;13.30;3.70;;;;;;;19.64;74.28;102613.63;5052694;28;20293;-66
2021/08/23 08:54:44;;;;;;;9.98;3.13;;;;;;;19.91;71.33;102626.97;5053100;28;20052;-67
2021/08/23 08:57:12;;;;;;;9.20;3.30;;;;;;;20.06;71.03;102622.72;5054277;28;20102;-66
2021/08/23 08:59:40;;;;;;;8.77;3.50;;;;;;;20.14;70.43;102612.41;5055886;28;20061;-69
2021/08/23 09:02:07;;;;;;;7.03;3.20;;;;;;;20.30;71.48;102624.31;5054394;28;20084;-68
2021/08/23 09:04:38;;;;;;;7.93;3.30;;;;;;;20.32;70.90;102622.41;5048785;28;20070;-70
2021/08/23 09:07:08;;;;;;;9.95;3.53;;;;;;;20.14;69.66;102623.22;5048616;28;20065;-67
2021/08/23 09:09:37;;;;;;;11.20;3.97;;;;;;;20.21;70.34;102630.16;5049724;28;20057;-67
2021/08/23 09:12:07;;;;;;;8.80;4.10;;;;;;;20.04;69.74;102619.16;5050737;28;20147;-67
2021/08/23 09:14:40;;;;;;;8.43;3.30;;;;;;;20.04;71.11;102630.91;5053138;28;20099;-67
2021/08/23 09:17:09;;;;;;;7.07;3.43;;;;;;;19.83;71.39;102626.41;5057026;28;20467;-67
2021/08/23 09:19:40;;;;;;;9.98;3.33;;;;;;;20.39;69.66;102633.00;5054688;28;20305;-67
2021/08/23 09:22:16;;;;;;;6.80;3.70;;;;;;;20.31;70.47;102626.09;5055974;28;20068;-68
2021/08/23 09:24:44;;;;;;;7.30;3.28;;;;;;;20.87;66.90;102620.84;5057629;28;20387;-67
2021/08/23 09:27:14;;;;;;;7.63;3.67;;;;;;;21.55;65.34;102626.59;5054466;28;20065;-67
2021/08/23 09:29:54;;;;;;;8.15;3.33;;;;;;;21.83;64.85;102626.06;5056394;28;20489;-67
2021/08/23 09:32:22;;;;;;;10.70;3.75;;;;;;;21.95;62.58;102619.13;5053440;28;20371;-67
2021/08/23 09:34:51;;;;;;;6.18;2.97;;;;;;;21.65;62.96;102629.72;5056896;28;20058;-67
2021/08/23 09:37:21;;;;;;;6.15;3.05;;;;;;;22.19;61.63;102633.25;5058592;28;20088;-67
2021/08/23 09:39:49;;;;;;;5.43;2.90;;;;;;;22.29;60.21;102630.09;5055620;28;20158;-66
2021/08/23 09:42:19;;;;;;;8.07;3.50;;;;;;;22.82;60.31;102629.00;5059020;28;20055;-67
2021/08/23 09:44:48;;;;;;;7.78;3.20;;;;;;;22.83;58.29;102628.03;5056021;28;20065;-67
2021/08/23 09:47:15;;;;;;;6.95;3.38;;;;;;;22.65;58.36;102627.22;5058409;28;20106;-66
2021/08/23 09:49:45;;;;;;;8.65;3.35;;;;;;;23.22;56.26;102623.16;5055387;28;20057;-67
2021/08/23 09:52:22;;;;;;;8.55;3.25;;;;;;;23.31;55.86;102628.97;5054225;28;20075;-66
2021/08/23 09:55:01;;;;;;;8.10;3.05;;;;;;;22.89;55.85;102626.81;5055850;28;20352;-66
2021/08/23 09:57:29;;;;;;;7.55;3.53;;;;;;;23.47;56.06;102631.66;5058017;28;20366;-66
2021/08/23 09:59:57;;;;;;;7.03;2.78;;;;;;;22.57;56.38;102629.47;5059770;28;20063;-66
2021/08/23 10:02:27;;;;;;;7.03;2.63;;;;;;;22.18;56.92;102630.63;5056831;28;20074;-66
2021/08/23 10:04:57;;;;;;;7.35;2.70;;;;;;;22.59;55.32;102643.00;5058596;28;20044;-67
2021/08/23 10:07:28;;;;;;;6.57;2.45;;;;;;;23.26;53.67;102632.94;5058995;28;20305;-67
2021/08/23 10:10:01;;;;;;;7.00;3.10;;;;;;;23.63;53.16;102631.66;5059075;28;20113;-66
2021/08/23 10:12:30;;;;;;;7.22;2.75;;;;;;;22.72;53.48;102639.50;5062374;28;20063;-67
2021/08/23 10:14:59;;;;;;;7.90;2.72;;;;;;;22.84;53.81;102637.94;5058232;28;20149;-67
2021/08/23 10:17:30;;;;;;;6.95;2.90;;;;;;;22.91;53.66;102628.47;5060105;28;20068;-69
2021/08/23 10:19:59;;;;;;;5.50;2.55;;;;;;;23.14;54.15;102634.50;5061155;28;20069;-69
2021/08/23 10:22:29;;;;;;;9.57;2.67;;;;;;;22.47;53.15;102636.38;5059601;28;20392;-69
2021/08/23 10:24:57;;;;;;;6.75;2.78;;;;;;;22.68;52.98;102637.03;5060249;28;20044;-69
2021/08/23 10:27:26;;;;;;;7.38;2.67;;;;;;;22.26;53.03;102632.94;5055978;28;20071;-69
2021/08/23 10:29:54;;;;;;;7.63;2.33;;;;;;;23.24;53.27;102633.00;5061820;28;20068;-69
2021/08/23 10:32:34;;;;;;;9.02;3.53;;;;;;;22.96;52.62;102630.06;5055146;28;20283;-69
2021/08/23 10:35:19;;;;;;;5.75;2.65;;;;;;;22.87;52.99;102626.03;5060701;28;20064;-67
2021/08/23 10:37:50;;;;;;;5.93;2.30;;;;;;;23.66;52.26;102627.84;5052962;28;20102;-67
2021/08/23 10:40:24;;;;;;;6.03;2.70;;;;;;;23.82;52.28;102631.47;5056432;28;20100;-69
2021/08/23 10:42:52;;;;;;;7.97;2.92;;;;;;;23.63;51.66;102628.03;5054814;28;20057;-69
2021/08/23 10:45:20;;;;;;;10.95;3.30;;;;;;;23.61;51.38;102633.56;5053661;28;20067;-67
2021/08/23 10:47:48;;;;;;;10.35;2.92;;;;;;;23.46;52.71;102634.47;5056022;28;20064;-69
2021/08/23 10:50:22;;;;;;;8.88;3.22;;;;;;;23.44;52.57;102631.81;5049608;28;20354;-69
2021/08/23 10:52:51;;;;;;;5.75;2.83;;;;;;;24.16;51.55;102636.69;5055476;28;20075;-69
2021/08/23 10:55:21;;;;;;;6.18;2.42;;;;;;;23.49;51.61;102631.56;5058900;28;21259;-68
2021/08/23 10:57:49;;;;;;;5.35;2.50;;;;;;;23.48;50.94;102629.84;5054630;28;20068;-69
2021/08/23 11:00:19;;;;;;;7.03;2.30;;;;;;;23.47;48.22;102628.94;5059401;28;20071;-68
2021/08/23 11:02:47;;;;;;;4.63;2.08;;;;;;;24.24;48.55;102637.97;5051611;28;20060;-69
2021/08/23 11:05:16;;;;;;;6.93;2.60;;;;;;;24.07;47.72;102635.41;5059189;28;21839;-68
2021/08/23 11:07:48;;;;;;;7.70;2.88;;;;;;;24.09;46.38;102633.44;5054540;28;20064;-69
2021/08/23 11:10:25;;;;;;;5.28;2.15;;;;;;;23.83;46.94;102637.78;5056488;28;20053;-70
2021/08/23 11:12:54;;;;;;;4.72;2.40;;;;;;;24.54;47.74;102645.25;5059020;28;20064;-70
2021/08/23 11:15:29;;;;;;;7.18;3.15;;;;;;;24.46;47.80;102639.34;5055482;28;20523;-70
2021/08/23 11:17:59;;;;;;;6.28;2.53;;;;;;;24.51;47.42;102634.50;5059122;28;20563;-70
2021/08/23 11:20:30;;;;;;;9.25;2.92;;;;;;;24.72;46.90;102637.75;5055882;28;20068;-70
2021/08/23 11:22:59;;;;;;;4.38;2.33;;;;;;;24.95;47.08;102628.06;5057667;28;20361;-70
2021/08/23 11:25:33;;;;;;;5.10;2.40;;;;;;;25.29;45.72;102630.47;5054171;28;20052;-68